sensor_id;sensor_type;location;lat;lon;timestamp;pressure;altitude;pressure_sealevel;temperature;humidity
3082;BME280;1551;51.046;7.010;2023-02-04T00:01:13;102397.78;;;9.77;78.59
3082;BME280;1551;51.046;7.010;2023-02-04T00:04:02;102401.13;;;9.73;77.88
3082;BME280;1551;51.046;7.010;2023-02-04T00:06:51;102407.84;;;9.70;78.71
3082;BME280;1551;51.046;7.010;2023-02-04T00:09:40;102414.72;;;9.73;79.12
3082;BME280;1551;51.046;7.010;2023-02-04T00:12:29;102425.03;;;9.76;78.93
3082;BME280;1551;51.046;7.010;2023-02-04T00:15:18;102426.59;;;9.69;78.02
3082;BME280;1551;51.046;7.010;2023-02-04T00:18:07;102429.25;;;9.74;78.66
3082;BME280;1551;51.046;7.010;2023-02-04T00:20:57;102431.00;;;9.75;78.79
3082;BME280;1551;51.046;7.010;2023-02-04T00:23:46;102428.31;;;9.70;77.99
3082;BME280;1551;51.046;7.010;2023-02-04T00:26:35;102439.38;;;9.68;77.41
3082;BME280;1551;51.046;7.010;2023-02-04T00:29:24;102444.44;;;9.66;78.00
3082;BME280;1551;51.046;7.010;2023-02-04T00:32:13;102430.78;;;9.66;77.96
3082;BME280;1551;51.046;7.010;2023-02-04T00:35:02;102432.59;;;9.70;77.48
3082;BME280;1551;51.046;7.010;2023-02-04T00:37:52;102437.59;;;9.65;78.16
3082;BME280;1551;51.046;7.010;2023-02-04T00:40:41;102438.44;;;9.66;77.19
3082;BME280;1551;51.046;7.010;2023-02-04T00:43:30;102435.78;;;9.61;77.51
3082;BME280;1551;51.046;7.010;2023-02-04T00:46:20;102434.09;;;9.62;77.71
3082;BME280;1551;51.046;7.010;2023-02-04T00:49:09;102440.88;;;9.60;76.80
3082;BME280;1551;51.046;7.010;2023-02-04T00:51:58;102445.13;;;9.59;77.50
3082;BME280;1551;51.046;7.010;2023-02-04T00:54:48;102442.53;;;9.58;77.33
3082;BME280;1551;51.046;7.010;2023-02-04T00:57:38;102441.69;;;9.57;76.74
3082;BME280;1551;51.046;7.010;2023-02-04T01:00:27;102439.91;;;9.55;77.37
3082;BME280;1551;51.046;7.010;2023-02-04T01:03:16;102441.69;;;9.59;77.07
3082;BME280;1551;51.046;7.010;2023-02-04T01:06:05;102455.41;;;9.61;77.06
3082;BME280;1551;51.046;7.010;2023-02-04T01:08:54;102458.91;;;9.66;77.89
3082;BME280;1551;51.046;7.010;2023-02-04T01:11:45;102453.69;;;9.61;77.22
3082;BME280;1551;51.046;7.010;2023-02-04T01:14:34;102463.03;;;9.59;77.36
3082;BME280;1551;51.046;7.010;2023-02-04T01:17:23;102455.44;;;9.62;76.88
3082;BME280;1551;51.046;7.010;2023-02-04T01:20:12;102461.25;;;9.57;76.80
3082;BME280;1551;51.046;7.010;2023-02-04T01:23:02;102463.78;;;9.55;77.30
3082;BME280;1551;51.046;7.010;2023-02-04T01:25:51;102472.25;;;9.53;77.73
3082;BME280;1551;51.046;7.010;2023-02-04T01:28:40;102463.78;;;9.54;77.06
3082;BME280;1551;51.046;7.010;2023-02-04T01:31:29;102474.00;;;9.54;77.60
3082;BME280;1551;51.046;7.010;2023-02-04T01:34:18;102480.81;;;9.55;77.10
3082;BME280;1551;51.046;7.010;2023-02-04T01:37:07;102463.78;;;9.54;77.32
3082;BME280;1551;51.046;7.010;2023-02-04T01:39:56;102482.06;;;9.72;77.89
3082;BME280;1551;51.046;7.010;2023-02-04T01:42:45;102480.19;;;9.65;77.49
3082;BME280;1551;51.046;7.010;2023-02-04T01:45:34;102484.44;;;9.64;77.10
3082;BME280;1551;51.046;7.010;2023-02-04T01:48:23;102489.47;;;9.60;77.53
3082;BME280;1551;51.046;7.010;2023-02-04T01:51:16;102503.91;;;9.59;77.30
3082;BME280;1551;51.046;7.010;2023-02-04T01:54:12;102502.31;;;9.63;77.91
3082;BME280;1551;51.046;7.010;2023-02-04T01:57:03;102507.56;;;9.69;78.22
3082;BME280;1551;51.046;7.010;2023-02-04T01:59:54;102506.66;;;9.67;77.69
3082;BME280;1551;51.046;7.010;2023-02-04T02:02:50;102505.97;;;9.74;77.91
3082;BME280;1551;51.046;7.010;2023-02-04T02:05:52;102506.84;;;9.75;77.37
3082;BME280;1551;51.046;7.010;2023-02-04T02:08:43;102511.91;;;9.73;78.07
3082;BME280;1551;51.046;7.010;2023-02-04T02:11:32;102505.75;;;9.65;77.22
3082;BME280;1551;51.046;7.010;2023-02-04T02:14:22;102516.88;;;9.65;77.33
3082;BME280;1551;51.046;7.010;2023-02-04T02:17:12;102521.91;;;9.64;78.48
3082;BME280;1551;51.046;7.010;2023-02-04T02:20:02;102511.75;;;9.65;78.13
3082;BME280;1551;51.046;7.010;2023-02-04T02:23:02;102508.28;;;9.63;78.58
3082;BME280;1551;51.046;7.010;2023-02-04T02:25:52;102514.31;;;9.65;78.56
3082;BME280;1551;51.046;7.010;2023-02-04T02:28:42;102509.81;;;9.57;78.78
3082;BME280;1551;51.046;7.010;2023-02-04T02:31:31;102522.69;;;9.60;79.05
3082;BME280;1551;51.046;7.010;2023-02-04T02:34:20;102535.56;;;9.63;79.32
3082;BME280;1551;51.046;7.010;2023-02-04T02:37:09;102529.50;;;9.59;79.33
3082;BME280;1551;51.046;7.010;2023-02-04T02:39:58;102528.63;;;9.59;79.70
3082;BME280;1551;51.046;7.010;2023-02-04T02:42:49;102532.63;;;9.48;79.39
3082;BME280;1551;51.046;7.010;2023-02-04T02:45:40;102538.63;;;9.50;79.85
3082;BME280;1551;51.046;7.010;2023-02-04T02:48:29;102542.13;;;9.53;79.83
3082;BME280;1551;51.046;7.010;2023-02-04T02:51:18;102549.81;;;9.55;80.94
3082;BME280;1551;51.046;7.010;2023-02-04T02:54:25;102540.19;;;9.45;80.52
3082;BME280;1551;51.046;7.010;2023-02-04T02:57:21;102538.41;;;9.41;81.21
3082;BME280;1551;51.046;7.010;2023-02-04T03:00:22;102546.00;;;9.38;81.89
3082;BME280;1551;51.046;7.010;2023-02-04T03:03:18;102540.88;;;9.38;80.99
3082;BME280;1551;51.046;7.010;2023-02-04T03:06:20;102536.41;;;9.29;81.22
3082;BME280;1551;51.046;7.010;2023-02-04T03:09:11;102537.38;;;9.33;82.45
3082;BME280;1551;51.046;7.010;2023-02-04T03:12:00;102535.53;;;9.27;81.92
3082;BME280;1551;51.046;7.010;2023-02-04T03:14:50;102544.78;;;9.24;82.14
3082;BME280;1551;51.046;7.010;2023-02-04T03:17:40;102550.81;;;9.26;82.34
3082;BME280;1551;51.046;7.010;2023-02-04T03:20:30;102549.16;;;9.28;82.12
3082;BME280;1551;51.046;7.010;2023-02-04T03:23:21;102555.97;;;9.27;81.40
3082;BME280;1551;51.046;7.010;2023-02-04T03:26:10;102567.00;;;9.26;82.46
3082;BME280;1551;51.046;7.010;2023-02-04T03:29:00;102573.03;;;9.28;81.43
3082;BME280;1551;51.046;7.010;2023-02-04T03:31:49;102570.66;;;9.36;82.41
3082;BME280;1551;51.046;7.010;2023-02-04T03:34:37;102574.06;;;9.35;82.15
3082;BME280;1551;51.046;7.010;2023-02-04T03:37:27;102580.97;;;9.39;82.38
3082;BME280;1551;51.046;7.010;2023-02-04T03:40:16;102579.19;;;9.36;81.83
3082;BME280;1551;51.046;7.010;2023-02-04T03:43:04;102572.41;;;9.38;82.44
3082;BME280;1551;51.046;7.010;2023-02-04T03:45:53;102569.75;;;9.34;82.14
3082;BME280;1551;51.046;7.010;2023-02-04T03:48:42;102576.59;;;9.35;81.96
3082;BME280;1551;51.046;7.010;2023-02-04T03:51:31;102576.66;;;9.38;81.89
3082;BME280;1551;51.046;7.010;2023-02-04T03:54:20;102586.81;;;9.35;81.71
3082;BME280;1551;51.046;7.010;2023-02-04T03:57:09;102589.22;;;9.29;82.19
3082;BME280;1551;51.046;7.010;2023-02-04T03:59:58;102586.59;;;9.26;82.28
3082;BME280;1551;51.046;7.010;2023-02-04T04:02:47;102580.56;;;9.24;82.42
3082;BME280;1551;51.046;7.010;2023-02-04T04:05:36;102581.38;;;9.21;82.05
3082;BME280;1551;51.046;7.010;2023-02-04T04:08:25;102580.25;;;9.12;82.54
3082;BME280;1551;51.046;7.010;2023-02-04T04:11:14;102580.31;;;9.15;83.17
3082;BME280;1551;51.046;7.010;2023-02-04T04:14:03;102583.88;;;9.20;82.91
3082;BME280;1551;51.046;7.010;2023-02-04T04:16:52;102590.66;;;9.19;83.50
3082;BME280;1551;51.046;7.010;2023-02-04T04:19:41;102582.81;;;9.12;83.26
3082;BME280;1551;51.046;7.010;2023-02-04T04:22:31;102589.75;;;9.17;83.05
3082;BME280;1551;51.046;7.010;2023-02-04T04:25:22;102587.97;;;9.13;83.21
3082;BME280;1551;51.046;7.010;2023-02-04T04:28:11;102594.75;;;9.13;83.70
3082;BME280;1551;51.046;7.010;2023-02-04T04:30:59;102589.69;;;9.14;83.36
3082;BME280;1551;51.046;7.010;2023-02-04T04:33:48;102595.41;;;9.06;83.44
3082;BME280;1551;51.046;7.010;2023-02-04T04:36:37;102609.97;;;9.10;83.88
3082;BME280;1551;51.046;7.010;2023-02-04T04:39:26;102618.63;;;9.13;83.78
3082;BME280;1551;51.046;7.010;2023-02-04T04:42:15;102615.91;;;9.07;84.07
3082;BME280;1551;51.046;7.010;2023-02-04T04:45:07;102622.63;;;9.05;84.59
3082;BME280;1551;51.046;7.010;2023-02-04T04:47:57;102625.38;;;9.11;84.26
3082;BME280;1551;51.046;7.010;2023-02-04T04:50:46;102612.28;;;9.00;84.89
3082;BME280;1551;51.046;7.010;2023-02-04T04:53:35;102630.28;;;9.05;83.96
3082;BME280;1551;51.046;7.010;2023-02-04T04:56:24;102632.94;;;9.08;84.79
3082;BME280;1551;51.046;7.010;2023-02-04T04:59:13;102632.06;;;9.08;85.09
3082;BME280;1551;51.046;7.010;2023-02-04T05:02:02;102637.94;;;9.04;85.18
3082;BME280;1551;51.046;7.010;2023-02-04T05:04:51;102635.25;;;8.99;84.52
3082;BME280;1551;51.046;7.010;2023-02-04T05:07:41;102632.72;;;9.00;85.23
3082;BME280;1551;51.046;7.010;2023-02-04T05:10:30;102633.69;;;9.04;85.05
3082;BME280;1551;51.046;7.010;2023-02-04T05:13:18;102634.44;;;9.00;85.64
3082;BME280;1551;51.046;7.010;2023-02-04T05:16:08;102617.25;;;8.94;85.27
3082;BME280;1551;51.046;7.010;2023-02-04T05:18:59;102633.72;;;9.06;85.59
3082;BME280;1551;51.046;7.010;2023-02-04T05:21:49;102639.56;;;9.02;85.54
3082;BME280;1551;51.046;7.010;2023-02-04T05:24:38;102641.25;;;9.01;85.23
3082;BME280;1551;51.046;7.010;2023-02-04T05:27:26;102649.63;;;8.95;85.62
3082;BME280;1551;51.046;7.010;2023-02-04T05:30:15;102661.53;;;8.95;85.96
3082;BME280;1551;51.046;7.010;2023-02-04T05:33:04;102660.56;;;8.91;86.48
3082;BME280;1551;51.046;7.010;2023-02-04T05:35:53;102656.31;;;8.90;85.90
3082;BME280;1551;51.046;7.010;2023-02-04T05:38:42;102652.66;;;8.82;86.29
3082;BME280;1551;51.046;7.010;2023-02-04T05:41:31;102657.84;;;8.85;86.68
3082;BME280;1551;51.046;7.010;2023-02-04T05:44:20;102661.53;;;8.95;86.54
3082;BME280;1551;51.046;7.010;2023-02-04T05:47:09;102663.19;;;8.93;86.59
3082;BME280;1551;51.046;7.010;2023-02-04T05:49:58;102666.38;;;8.86;86.59
3082;BME280;1551;51.046;7.010;2023-02-04T05:52:47;102666.19;;;8.80;86.72
3082;BME280;1551;51.046;7.010;2023-02-04T05:55:36;102677.25;;;8.79;87.12
3082;BME280;1551;51.046;7.010;2023-02-04T05:58:25;102682.28;;;8.77;87.34
3082;BME280;1551;51.046;7.010;2023-02-04T06:01:21;102682.28;;;8.77;87.82
3082;BME280;1551;51.046;7.010;2023-02-04T06:04:09;102684.13;;;8.81;87.32
3082;BME280;1551;51.046;7.010;2023-02-04T06:06:58;102687.63;;;8.85;87.51
3082;BME280;1551;51.046;7.010;2023-02-04T06:09:47;102700.44;;;8.86;87.66
3082;BME280;1551;51.046;7.010;2023-02-04T06:12:36;102699.44;;;8.81;87.46
3082;BME280;1551;51.046;7.010;2023-02-04T06:15:25;102707.81;;;8.77;87.27
3082;BME280;1551;51.046;7.010;2023-02-04T06:18:14;102699.59;;;8.86;87.52
3082;BME280;1551;51.046;7.010;2023-02-04T06:21:03;102703.91;;;8.88;87.34
3082;BME280;1551;51.046;7.010;2023-02-04T06:23:52;102709.97;;;8.92;87.52
3082;BME280;1551;51.046;7.010;2023-02-04T06:26:41;102696.09;;;8.84;87.90
3082;BME280;1551;51.046;7.010;2023-02-04T06:29:30;102721.97;;;8.94;87.69
3082;BME280;1551;51.046;7.010;2023-02-04T06:32:20;102724.63;;;8.99;87.67
3082;BME280;1551;51.046;7.010;2023-02-04T06:35:09;102729.72;;;8.97;86.80
3082;BME280;1551;51.046;7.010;2023-02-04T06:38:00;102731.94;;;8.87;87.51
3082;BME280;1551;51.046;7.010;2023-02-04T06:40:49;102732.91;;;8.90;87.41
3082;BME280;1551;51.046;7.010;2023-02-04T06:43:40;102733.63;;;8.86;87.20
3082;BME280;1551;51.046;7.010;2023-02-04T06:46:29;102725.31;;;8.93;87.91
3082;BME280;1551;51.046;7.010;2023-02-04T06:49:18;102723.78;;;8.98;87.48
3082;BME280;1551;51.046;7.010;2023-02-04T06:52:07;102715.09;;;8.93;87.50
3082;BME280;1551;51.046;7.010;2023-02-04T06:54:56;102725.38;;;8.95;86.42
3082;BME280;1551;51.046;7.010;2023-02-04T06:57:45;102729.34;;;8.85;86.71
3082;BME280;1551;51.046;7.010;2023-02-04T07:00:34;102726.16;;;8.92;87.54
3082;BME280;1551;51.046;7.010;2023-02-04T07:03:23;102730.50;;;8.95;86.56
3082;BME280;1551;51.046;7.010;2023-02-04T07:06:12;102736.38;;;8.92;86.97
3082;BME280;1551;51.046;7.010;2023-02-04T07:09:01;102736.31;;;8.91;86.96
3082;BME280;1551;51.046;7.010;2023-02-04T07:11:50;102737.94;;;8.89;86.51
3082;BME280;1551;51.046;7.010;2023-02-04T07:14:39;102734.50;;;8.87;87.38
3082;BME280;1551;51.046;7.010;2023-02-04T07:17:28;102737.19;;;8.91;87.26
3082;BME280;1551;51.046;7.010;2023-02-04T07:20:19;102741.63;;;8.97;87.55
3082;BME280;1551;51.046;7.010;2023-02-04T07:23:08;102748.44;;;8.98;88.27
3082;BME280;1551;51.046;7.010;2023-02-04T07:25:57;102753.84;;;9.07;88.42
3082;BME280;1551;51.046;7.010;2023-02-04T07:28:47;102755.75;;;9.14;87.75
3082;BME280;1551;51.046;7.010;2023-02-04T07:31:36;102757.47;;;9.15;87.87
3082;BME280;1551;51.046;7.010;2023-02-04T07:34:25;102765.00;;;9.11;87.83
3082;BME280;1551;51.046;7.010;2023-02-04T07:37:14;102761.69;;;9.15;87.72
3082;BME280;1551;51.046;7.010;2023-02-04T07:40:03;102775.56;;;9.23;87.02
3082;BME280;1551;51.046;7.010;2023-02-04T07:42:53;102779.16;;;9.29;86.99
3082;BME280;1551;51.046;7.010;2023-02-04T07:45:44;102782.63;;;9.31;85.95
3082;BME280;1551;51.046;7.010;2023-02-04T07:48:33;102785.16;;;9.30;85.61
3082;BME280;1551;51.046;7.010;2023-02-04T07:51:22;102785.16;;;9.30;84.75
3082;BME280;1551;51.046;7.010;2023-02-04T07:54:11;102790.28;;;9.31;85.44
3082;BME280;1551;51.046;7.010;2023-02-04T07:57:00;102791.16;;;9.32;86.20
3082;BME280;1551;51.046;7.010;2023-02-04T07:59:48;102794.72;;;9.37;86.21
3082;BME280;1551;51.046;7.010;2023-02-04T08:02:37;102798.03;;;9.33;85.38
3082;BME280;1551;51.046;7.010;2023-02-04T08:05:26;102795.63;;;9.39;85.54
3082;BME280;1551;51.046;7.010;2023-02-04T08:08:15;102791.53;;;9.44;85.65
3082;BME280;1551;51.046;7.010;2023-02-04T08:11:04;102791.50;;;9.42;84.44
3082;BME280;1551;51.046;7.010;2023-02-04T08:13:53;102803.13;;;9.33;84.77
3082;BME280;1551;51.046;7.010;2023-02-04T08:16:42;102806.38;;;9.27;84.52
3082;BME280;1551;51.046;7.010;2023-02-04T08:19:31;102797.19;;;9.34;84.64
3082;BME280;1551;51.046;7.010;2023-02-04T08:22:20;102803.28;;;9.37;84.56
3082;BME280;1551;51.046;7.010;2023-02-04T08:25:10;102811.09;;;9.43;85.21
3082;BME280;1551;51.046;7.010;2023-02-04T08:27:59;102816.25;;;9.45;84.51
3082;BME280;1551;51.046;7.010;2023-02-04T08:30:48;102816.31;;;9.46;85.26
3082;BME280;1551;51.046;7.010;2023-02-04T08:33:38;102823.19;;;9.49;84.20
3082;BME280;1551;51.046;7.010;2023-02-04T08:36:27;102835.13;;;9.50;84.30
3082;BME280;1551;51.046;7.010;2023-02-04T08:39:16;102827.56;;;9.53;84.28
3082;BME280;1551;51.046;7.010;2023-02-04T08:42:05;102826.78;;;9.55;84.56
3082;BME280;1551;51.046;7.010;2023-02-04T08:44:54;102831.88;;;9.54;84.55
3082;BME280;1551;51.046;7.010;2023-02-04T08:47:43;102836.97;;;9.54;84.62
3082;BME280;1551;51.046;7.010;2023-02-04T08:50:32;102839.66;;;9.58;84.67
3082;BME280;1551;51.046;7.010;2023-02-04T08:53:21;102847.66;;;9.70;84.58
3082;BME280;1551;51.046;7.010;2023-02-04T08:56:10;102840.84;;;9.71;84.67
3082;BME280;1551;51.046;7.010;2023-02-04T08:59:04;102834.06;;;9.72;84.75
3082;BME280;1551;51.046;7.010;2023-02-04T09:01:53;102843.41;;;9.71;84.82
3082;BME280;1551;51.046;7.010;2023-02-04T09:04:42;102846.88;;;9.73;84.37
3082;BME280;1551;51.046;7.010;2023-02-04T09:07:31;102852.19;;;9.79;85.42
3082;BME280;1551;51.046;7.010;2023-02-04T09:10:20;102862.63;;;9.87;84.06
3082;BME280;1551;51.046;7.010;2023-02-04T09:13:08;102863.31;;;9.81;84.11
3082;BME280;1551;51.046;7.010;2023-02-04T09:15:59;102868.44;;;9.81;83.93
3082;BME280;1551;51.046;7.010;2023-02-04T09:18:48;102872.25;;;9.97;83.54
3082;BME280;1551;51.046;7.010;2023-02-04T09:21:37;102866.47;;;10.02;83.13
3082;BME280;1551;51.046;7.010;2023-02-04T09:24:26;102870.91;;;10.09;83.01
3082;BME280;1551;51.046;7.010;2023-02-04T09:27:15;102870.44;;;10.22;83.56
3082;BME280;1551;51.046;7.010;2023-02-04T09:30:04;102878.97;;;10.23;82.82
3082;BME280;1551;51.046;7.010;2023-02-04T09:32:53;102878.53;;;10.38;82.62
3082;BME280;1551;51.046;7.010;2023-02-04T09:35:43;102883.97;;;10.50;82.33
3082;BME280;1551;51.046;7.010;2023-02-04T09:38:32;102892.84;;;10.64;82.75
3082;BME280;1551;51.046;7.010;2023-02-04T09:41:21;102890.63;;;10.77;81.58
3082;BME280;1551;51.046;7.010;2023-02-04T09:44:16;102888.88;;;10.75;80.97
3082;BME280;1551;51.046;7.010;2023-02-04T09:47:10;102894.53;;;10.62;80.68
3082;BME280;1551;51.046;7.010;2023-02-04T09:50:03;102897.25;;;10.69;81.04
3082;BME280;1551;51.046;7.010;2023-02-04T09:52:54;102893.59;;;10.60;81.12
3082;BME280;1551;51.046;7.010;2023-02-04T09:55:48;102890.06;;;10.55;80.84
3082;BME280;1551;51.046;7.010;2023-02-04T09:58:37;102892.84;;;10.64;80.54
3082;BME280;1551;51.046;7.010;2023-02-04T10:01:26;102893.88;;;10.70;80.12
3082;BME280;1551;51.046;7.010;2023-02-04T10:04:17;102900.66;;;10.68;80.17
3082;BME280;1551;51.046;7.010;2023-02-04T10:07:10;102911.09;;;10.76;80.41
3082;BME280;1551;51.046;7.010;2023-02-04T10:09:59;102914.75;;;10.85;79.83
3082;BME280;1551;51.046;7.010;2023-02-04T10:12:50;102912.41;;;10.94;79.33
3082;BME280;1551;51.046;7.010;2023-02-04T10:15:40;102915.91;;;10.98;79.04
3082;BME280;1551;51.046;7.010;2023-02-04T10:18:31;102919.25;;;10.95;79.32
3082;BME280;1551;51.046;7.010;2023-02-04T10:21:25;102926.22;;;11.01;78.67
3082;BME280;1551;51.046;7.010;2023-02-04T10:24:18;102918.53;;;11.01;78.16
3082;BME280;1551;51.046;7.010;2023-02-04T10:27:09;102919.53;;;11.06;78.38
3082;BME280;1551;51.046;7.010;2023-02-04T10:29:58;102923.28;;;11.20;78.30
3082;BME280;1551;51.046;7.010;2023-02-04T10:32:47;102924.19;;;11.24;77.73
3082;BME280;1551;51.046;7.010;2023-02-04T10:35:47;102919.84;;;11.20;77.00
3082;BME280;1551;51.046;7.010;2023-02-04T10:38:37;102920.66;;;11.19;78.10
3082;BME280;1551;51.046;7.010;2023-02-04T10:41:25;102918.56;;;11.38;77.24
3082;BME280;1551;51.046;7.010;2023-02-04T10:44:17;102916.13;;;11.44;76.76
3082;BME280;1551;51.046;7.010;2023-02-04T10:47:15;102914.31;;;11.40;76.68
3082;BME280;1551;51.046;7.010;2023-02-04T10:50:17;102911.22;;;11.55;76.14
3082;BME280;1551;51.046;7.010;2023-02-04T10:53:09;102918.22;;;11.62;75.54
3082;BME280;1551;51.046;7.010;2023-02-04T10:56:19;102917.66;;;11.75;75.65
3082;BME280;1551;51.046;7.010;2023-02-04T10:59:20;102915.91;;;11.72;75.08
3082;BME280;1551;51.046;7.010;2023-02-04T11:02:31;102919.34;;;11.73;74.30
3082;BME280;1551;51.046;7.010;2023-02-04T11:05:22;102920.34;;;11.80;74.03
3082;BME280;1551;51.046;7.010;2023-02-04T11:08:22;102922.47;;;11.60;74.56
3082;BME280;1551;51.046;7.010;2023-02-04T11:11:32;102923.44;;;11.65;74.58
3082;BME280;1551;51.046;7.010;2023-02-04T11:14:24;102918.44;;;11.69;74.23
3082;BME280;1551;51.046;7.010;2023-02-04T11:17:19;102917.00;;;11.84;74.13
3082;BME280;1551;51.046;7.010;2023-02-04T11:20:16;102919.66;;;11.88;73.46
3082;BME280;1551;51.046;7.010;2023-02-04T11:26:31;102930.81;;;11.51;73.72
3082;BME280;1551;51.046;7.010;2023-02-04T11:29:26;102918.69;;;11.44;74.27
3082;BME280;1551;51.046;7.010;2023-02-04T11:32:35;102929.09;;;11.50;74.53
3082;BME280;1551;51.046;7.010;2023-02-04T11:35:27;102918.22;;;11.60;74.43
3082;BME280;1551;51.046;7.010;2023-02-04T11:38:26;102926.81;;;11.64;74.22
3082;BME280;1551;51.046;7.010;2023-02-04T11:41:27;102918.47;;;11.72;73.98
3082;BME280;1551;51.046;7.010;2023-02-04T11:44:17;102914.66;;;11.96;73.85
3082;BME280;1551;51.046;7.010;2023-02-04T11:47:07;102917.53;;;12.11;72.99
3082;BME280;1551;51.046;7.010;2023-02-04T11:49:58;102912.25;;;12.03;73.09
3082;BME280;1551;51.046;7.010;2023-02-04T11:52:47;102917.81;;;12.24;72.74
3082;BME280;1551;51.046;7.010;2023-02-04T11:55:43;102930.16;;;12.45;71.96
3082;BME280;1551;51.046;7.010;2023-02-04T11:58:32;102927.44;;;12.36;71.10
3082;BME280;1551;51.046;7.010;2023-02-04T12:01:23;102939.84;;;12.12;70.83
3082;BME280;1551;51.046;7.010;2023-02-04T12:04:24;102930.78;;;11.89;71.05
3082;BME280;1551;51.046;7.010;2023-02-04T12:07:20;102936.66;;;11.83;71.83
3082;BME280;1551;51.046;7.010;2023-02-04T12:13:21;102927.69;;;11.64;71.64
3082;BME280;1551;51.046;7.010;2023-02-04T12:16:10;102925.94;;;11.63;72.07
3082;BME280;1551;51.046;7.010;2023-02-04T12:18:59;102933.63;;;11.63;71.27
3082;BME280;1551;51.046;7.010;2023-02-04T12:21:48;102924.94;;;11.57;71.27
3082;BME280;1551;51.046;7.010;2023-02-04T12:24:37;102928.81;;;11.77;71.67
3082;BME280;1551;51.046;7.010;2023-02-04T12:27:26;102934.28;;;11.91;70.84
3082;BME280;1551;51.046;7.010;2023-02-04T12:30:15;102938.97;;;12.11;70.92
3082;BME280;1551;51.046;7.010;2023-02-04T12:33:06;102932.56;;;12.36;70.08
3082;BME280;1551;51.046;7.010;2023-02-04T12:35:55;102936.22;;;12.47;69.91
3082;BME280;1551;51.046;7.010;2023-02-04T12:38:44;102930.59;;;12.69;69.38
3082;BME280;1551;51.046;7.010;2023-02-04T12:41:33;102924.84;;;12.82;68.60
3082;BME280;1551;51.046;7.010;2023-02-04T12:44:22;102923.97;;;12.82;67.34
3082;BME280;1551;51.046;7.010;2023-02-04T12:47:11;102921.06;;;12.61;66.97
3082;BME280;1551;51.046;7.010;2023-02-04T12:50:00;102923.16;;;12.35;67.89
3082;BME280;1551;51.046;7.010;2023-02-04T12:52:53;102928.72;;;12.59;67.79
3082;BME280;1551;51.046;7.010;2023-02-04T12:55:42;102925.53;;;12.72;67.46
3082;BME280;1551;51.046;7.010;2023-02-04T12:58:31;102925.69;;;12.83;66.65
3082;BME280;1551;51.046;7.010;2023-02-04T13:01:20;102928.59;;;13.02;65.80
3082;BME280;1551;51.046;7.010;2023-02-04T13:04:09;102933.31;;;13.28;64.73
3082;BME280;1551;51.046;7.010;2023-02-04T13:06:58;102936.56;;;13.18;63.68
3082;BME280;1551;51.046;7.010;2023-02-04T13:09:47;102928.97;;;13.24;63.73
3082;BME280;1551;51.046;7.010;2023-02-04T13:12:36;102927.22;;;13.23;63.06
3082;BME280;1551;51.046;7.010;2023-02-04T13:15:26;102923.13;;;13.34;62.88
3082;BME280;1551;51.046;7.010;2023-02-04T13:18:15;102924.00;;;13.36;63.24
3082;BME280;1551;51.046;7.010;2023-02-04T13:21:05;102919.94;;;13.53;62.76
3082;BME280;1551;51.046;7.010;2023-02-04T13:23:54;102931.16;;;13.56;62.25
3082;BME280;1551;51.046;7.010;2023-02-04T13:26:45;102927.72;;;13.57;61.73
3082;BME280;1551;51.046;7.010;2023-02-04T13:29:34;102928.78;;;13.73;61.64
3082;BME280;1551;51.046;7.010;2023-02-04T13:32:23;102924.00;;;14.02;60.98
3082;BME280;1551;51.046;7.010;2023-02-04T13:35:12;102930.00;;;14.83;58.91
3082;BME280;1551;51.046;7.010;2023-02-04T13:38:00;102925.09;;;15.20;56.41
3082;BME280;1551;51.046;7.010;2023-02-04T13:40:49;102923.03;;;16.15;55.54
3082;BME280;1551;51.046;7.010;2023-02-04T13:43:38;102927.97;;;18.14;51.96
3082;BME280;1551;51.046;7.010;2023-02-04T13:46:28;102928.66;;;18.45;49.41
3082;BME280;1551;51.046;7.010;2023-02-04T13:49:17;102920.03;;;21.20;43.37
3082;BME280;1551;51.046;7.010;2023-02-04T13:52:06;102914.91;;;19.39;43.93
3082;BME280;1551;51.046;7.010;2023-02-04T13:54:55;102913.09;;;18.49;46.20
3082;BME280;1551;51.046;7.010;2023-02-04T13:57:44;102905.84;;;17.24;47.27
3082;BME280;1551;51.046;7.010;2023-02-04T14:00:33;102892.88;;;16.27;48.41
3082;BME280;1551;51.046;7.010;2023-02-04T14:03:27;102910.59;;;18.30;45.32
3082;BME280;1551;51.046;7.010;2023-02-04T14:06:16;102915.75;;;20.08;41.25
3082;BME280;1551;51.046;7.010;2023-02-04T14:09:11;102912.16;;;20.18;39.70
3082;BME280;1551;51.046;7.010;2023-02-04T14:12:01;102915.91;;;21.08;39.10
3082;BME280;1551;51.046;7.010;2023-02-04T14:14:50;102910.09;;;20.91;38.36
3082;BME280;1551;51.046;7.010;2023-02-04T14:17:39;102910.28;;;20.29;39.52
3082;BME280;1551;51.046;7.010;2023-02-04T14:20:27;102917.28;;;20.79;39.14
3082;BME280;1551;51.046;7.010;2023-02-04T14:23:16;102914.75;;;22.09;36.22
3082;BME280;1551;51.046;7.010;2023-02-04T14:26:05;102918.41;;;22.38;34.96
3082;BME280;1551;51.046;7.010;2023-02-04T14:28:54;102930.19;;;23.56;33.64
3082;BME280;1551;51.046;7.010;2023-02-04T14:31:43;102919.84;;;23.82;32.68
3082;BME280;1551;51.046;7.010;2023-02-04T14:34:32;102926.19;;;24.84;31.87
3082;BME280;1551;51.046;7.010;2023-02-04T14:37:22;102927.16;;;25.06;31.26
3082;BME280;1551;51.046;7.010;2023-02-04T14:40:14;102928.09;;;23.96;31.48
3082;BME280;1551;51.046;7.010;2023-02-04T14:43:03;102931.84;;;23.26;32.13
3082;BME280;1551;51.046;7.010;2023-02-04T14:45:52;102923.81;;;23.01;32.25
3082;BME280;1551;51.046;7.010;2023-02-04T14:48:41;102924.63;;;21.95;33.21
3082;BME280;1551;51.046;7.010;2023-02-04T14:51:30;102936.22;;;22.93;32.41
3082;BME280;1551;51.046;7.010;2023-02-04T14:54:19;102940.16;;;22.01;33.12
3082;BME280;1551;51.046;7.010;2023-02-04T14:57:07;102928.34;;;20.38;35.13
3082;BME280;1551;51.046;7.010;2023-02-04T14:59:59;102942.19;;;19.76;36.38
3082;BME280;1551;51.046;7.010;2023-02-04T15:02:48;102929.50;;;18.50;38.72
3082;BME280;1551;51.046;7.010;2023-02-04T15:05:37;102935.91;;;17.85;40.51
3082;BME280;1551;51.046;7.010;2023-02-04T15:08:26;102938.66;;;16.68;42.77
3082;BME280;1551;51.046;7.010;2023-02-04T15:11:15;102935.03;;;15.96;44.95
3082;BME280;1551;51.046;7.010;2023-02-04T15:14:04;102939.09;;;15.50;46.30
3082;BME280;1551;51.046;7.010;2023-02-04T15:16:53;102936.22;;;15.08;48.09
3082;BME280;1551;51.046;7.010;2023-02-04T15:19:42;102929.94;;;14.77;49.05
3082;BME280;1551;51.046;7.010;2023-02-04T15:22:31;102932.25;;;14.47;49.80
3082;BME280;1551;51.046;7.010;2023-02-04T15:25:21;102937.78;;;14.05;50.87
3082;BME280;1551;51.046;7.010;2023-02-04T15:28:10;102935.66;;;13.72;52.02